createdAt,value
2022-08-23T00:05:08.129Z,93.75
2022-08-23T00:10:15.683Z,94.28
2022-08-23T00:15:20.466Z,94.82
2022-08-23T00:20:22.048Z,95.37
2022-08-23T00:25:24.187Z,96.20
2022-08-23T00:30:25.767Z,96.36
2022-08-23T00:35:27.802Z,96.72
2022-08-23T00:40:29.445Z,97.60
2022-08-23T00:45:56.622Z,97.96
2022-08-23T00:51:11.165Z,98.80
2022-08-23T00:56:15.667Z,99.14
2022-08-23T01:01:18.243Z,99.96
2022-08-23T01:06:27.202Z,100.00
2022-08-23T01:11:35.085Z,100.00
2022-08-23T01:16:55.457Z,100.00
2022-08-23T01:22:10.257Z,100.00
2022-08-23T01:27:13.196Z,100.00
2022-08-23T01:32:14.939Z,100.00
2022-08-23T01:37:16.558Z,100.00
2022-08-23T01:42:18.466Z,100.00
2022-08-23T01:47:20.023Z,100.00
2022-08-23T01:52:21.598Z,100.00
2022-08-23T01:57:24.166Z,100.00
2022-08-23T02:02:26.170Z,100.00
2022-08-23T02:07:28.934Z,100.00
2022-08-23T02:12:30.608Z,100.00
2022-08-23T02:17:32.181Z,100.00
2022-08-23T02:22:33.778Z,100.00
2022-08-23T02:27:35.366Z,100.00
2022-08-23T02:32:36.932Z,100.00
2022-08-23T02:37:38.624Z,100.00
2022-08-23T02:42:40.172Z,100.00
2022-08-23T02:47:42.590Z,100.00
2022-08-23T02:52:44.145Z,100.00
2022-08-23T02:57:46.513Z,100.00
2022-08-23T03:02:48.370Z,100.00
2022-08-23T03:07:50.842Z,100.00
2022-08-23T03:12:52.456Z,100.00
2022-08-23T03:17:54.204Z,100.00
2022-08-23T03:22:55.968Z,100.00
2022-08-23T03:27:58.200Z,100.00
2022-08-23T03:33:01.513Z,100.00
2022-08-23T03:38:03.243Z,100.00
2022-08-23T03:43:05.125Z,100.00
2022-08-23T03:48:06.891Z,100.00
2022-08-23T03:53:09.151Z,100.00
2022-08-23T03:58:14.763Z,100.00
2022-08-23T04:03:16.673Z,100.00
2022-08-23T04:08:26.991Z,100.00
2022-08-23T04:13:36.338Z,100.00
2022-08-23T04:18:37.959Z,100.00
2022-08-23T04:23:40.297Z,100.00
2022-08-23T04:28:41.928Z,100.00
2022-08-23T04:33:43.481Z,100.00
2022-08-23T04:38:45.078Z,100.00
2022-08-23T04:43:47.051Z,100.00
2022-08-23T04:48:49.006Z,100.00
2022-08-23T04:53:51.006Z,100.00
2022-08-23T04:58:53.033Z,100.00
2022-08-23T05:03:55.420Z,100.00
2022-08-23T05:08:58.182Z,100.00
2022-08-23T05:14:00.153Z,100.00
2022-08-23T05:19:01.838Z,100.00
2022-08-23T05:24:03.942Z,100.00
2022-08-23T05:29:05.615Z,100.00
2022-08-23T05:34:07.355Z,100.00
2022-08-23T05:39:08.953Z,100.00
2022-08-23T05:44:11.790Z,100.00
2022-08-23T05:49:16.335Z,100.00
2022-08-23T05:54:22.830Z,100.00
2022-08-23T05:59:24.486Z,100.00
2022-08-23T06:04:26.069Z,100.00
2022-08-23T06:09:28.033Z,100.00
2022-08-23T06:14:29.717Z,100.00
2022-08-23T06:19:31.313Z,100.00
2022-08-23T06:24:33.366Z,100.00
2022-08-23T06:29:34.934Z,100.00
2022-08-23T06:34:38.214Z,99.40
2022-08-23T06:39:40.274Z,96.98
2022-08-23T06:44:42.315Z,95.86
2022-08-23T06:49:55.376Z,94.93
2022-08-23T06:55:00.041Z,93.93
2022-08-23T07:00:01.634Z,92.92
2022-08-23T07:05:04.137Z,90.96
2022-08-23T07:10:06.710Z,88.66
2022-08-23T07:15:09.964Z,86.49
2022-08-23T07:20:11.685Z,84.58
2022-08-23T07:25:13.571Z,84.30
2022-08-23T07:30:16.110Z,83.48
2022-08-23T07:35:17.687Z,83.93
2022-08-23T07:40:20.673Z,85.59
2022-08-23T07:45:25.301Z,86.81
2022-08-23T07:50:30.391Z,87.28
2022-08-23T07:55:32.260Z,87.67
2022-08-23T08:00:34.351Z,87.58
2022-08-23T08:05:36.109Z,87.69
2022-08-23T08:10:43.909Z,87.74
2022-08-23T08:15:45.531Z,85.97
2022-08-23T08:20:48.935Z,84.34
2022-08-23T08:26:02.891Z,81.68
2022-08-23T08:31:05.571Z,79.89
2022-08-23T08:36:08.566Z,78.05
2022-08-23T08:41:22.380Z,77.44
2022-08-23T08:46:27.840Z,77.42
2022-08-23T08:51:48.784Z,78.29
2022-08-23T08:56:55.924Z,77.43
2022-08-23T09:01:58.621Z,76.59
2022-08-23T09:07:16.132Z,73.29
2022-08-23T09:12:27.207Z,72.47
2022-08-23T09:17:44.014Z,70.79
2022-08-23T09:22:52.852Z,69.04
2022-08-23T09:27:54.368Z,70.90
2022-08-23T09:33:16.248Z,67.41
2022-08-23T09:38:20.364Z,66.59
2022-08-23T09:43:26.214Z,65.26
2022-08-23T09:48:35.751Z,63.79
2022-08-23T09:53:40.922Z,62.45
2022-08-23T09:58:53.506Z,60.92
2022-08-23T10:04:29.610Z,60.66
2022-08-23T10:09:33.606Z,60.57
2022-08-23T10:14:35.191Z,65.06
2022-08-23T10:20:08.871Z,68.66
2022-08-23T10:25:16.453Z,68.99
2022-08-23T10:30:27.459Z,68.74
2022-08-23T10:36:17.042Z,68.71
2022-08-23T10:41:24.218Z,68.51
2022-08-23T10:46:33.984Z,68.17
2022-08-23T10:51:43.277Z,68.13
2022-08-23T10:56:48.696Z,67.90
2022-08-23T11:02:22.120Z,68.19
2022-08-23T11:07:32.441Z,67.32
2022-08-23T11:12:49.491Z,67.38
2022-08-23T11:17:51.539Z,66.63
2022-08-23T11:23:02.115Z,65.82
2022-08-23T11:28:22.286Z,65.10
2022-08-23T11:33:29.912Z,64.73
2022-08-23T11:38:43.302Z,63.28
2022-08-23T11:43:56.944Z,63.09
2022-08-23T11:49:29.771Z,64.14
2022-08-23T11:55:05.207Z,63.92
2022-08-23T12:00:17.806Z,63.76
2022-08-23T12:05:33.869Z,64.02
2022-08-23T12:10:41.364Z,61.75
2022-08-23T12:16:04.874Z,63.02
2022-08-23T12:21:16.215Z,62.18
2022-08-23T12:26:28.900Z,60.86
2022-08-23T12:31:48.356Z,60.61
2022-08-23T12:37:12.685Z,62.10
2022-08-23T12:42:17.581Z,61.68
2022-08-23T12:47:21.943Z,62.08
2022-08-23T12:52:26.401Z,62.04
2022-08-23T12:57:34.045Z,62.81
2022-08-23T13:02:37.249Z,62.68
2022-08-23T13:07:40.441Z,62.38
2022-08-23T13:12:42.807Z,62.23
2022-08-23T13:17:44.404Z,61.85
2022-08-23T13:23:28.228Z,62.08
2022-08-23T13:28:31.141Z,62.00
2022-08-23T13:33:33.039Z,61.06
2022-08-23T13:38:34.658Z,59.58
2022-08-23T13:43:48.806Z,58.29
2022-08-23T13:49:11.608Z,57.08
2022-08-23T13:54:15.551Z,56.67
2022-08-23T13:59:39.436Z,56.30
2022-08-23T14:04:42.051Z,61.52
2022-08-23T14:09:43.679Z,64.38
2022-08-23T14:14:46.148Z,65.46
2022-08-23T14:20:32.848Z,66.94
2022-08-23T14:25:12.559Z,68.20
2022-08-23T14:30:32.494Z,69.42
2022-08-23T14:35:34.168Z,69.83
2022-08-23T14:40:36.334Z,71.18
2022-08-23T14:45:37.956Z,71.50
2022-08-23T14:50:41.157Z,71.53
2022-08-23T14:55:42.878Z,71.53
2022-08-23T15:00:44.412Z,71.78
2022-08-23T15:05:46.024Z,72.38
2022-08-23T15:10:52.924Z,72.92
2022-08-23T15:16:11.634Z,73.58
2022-08-23T15:21:14.885Z,74.06
2022-08-23T15:26:22.609Z,74.10
2022-08-23T15:31:24.869Z,74.49
2022-08-23T15:36:28.031Z,74.58
2022-08-23T15:41:29.533Z,75.40
2022-08-23T15:46:31.185Z,76.29
2022-08-23T15:51:32.768Z,76.27
2022-08-23T15:56:39.724Z,77.29
2022-08-23T16:01:42.083Z,77.48
2022-08-23T16:06:45.118Z,77.83
2022-08-23T16:11:46.686Z,78.34
2022-08-23T16:16:48.412Z,78.45
2022-08-23T16:21:52.970Z,79.05
2022-08-23T16:26:54.686Z,78.95
2022-08-23T16:31:56.196Z,79.22
2022-08-23T16:37:00.177Z,79.38
2022-08-23T16:42:04.301Z,80.03
2022-08-23T16:47:08.611Z,80.26
2022-08-23T16:52:10.696Z,80.55
2022-08-23T16:57:12.506Z,81.00
2022-08-23T17:02:27.676Z,81.63
2022-08-23T17:07:29.304Z,81.83
2022-08-23T17:12:31.702Z,82.62
2022-08-23T17:17:33.365Z,83.10
2022-08-23T17:22:34.964Z,83.49
2022-08-23T17:27:40.073Z,84.21
2022-08-23T17:32:44.370Z,84.41
2022-08-23T17:37:46.002Z,84.76
2022-08-23T17:42:47.567Z,85.15
2022-08-23T17:47:49.094Z,85.92
2022-08-23T17:52:50.862Z,86.64
2022-08-23T17:57:55.094Z,87.22
2022-08-23T18:02:59.878Z,87.80
2022-08-23T18:08:01.945Z,88.40
2022-08-23T18:13:04.199Z,89.51
2022-08-23T18:18:05.959Z,90.17
2022-08-23T18:23:07.923Z,91.33
2022-08-23T18:28:11.099Z,91.88
2022-08-23T18:33:13.316Z,92.61
2022-08-23T18:38:14.868Z,93.10
2022-08-23T18:43:20.638Z,93.94
2022-08-23T18:48:23.216Z,94.11
2022-08-23T18:53:24.944Z,94.29
2022-08-23T18:58:26.549Z,94.56
2022-08-23T19:03:30.023Z,94.85
2022-08-23T19:08:31.517Z,95.30
2022-08-23T19:13:33.099Z,95.63
2022-08-23T19:18:35.761Z,96.19
2022-08-23T19:23:37.734Z,96.46
2022-08-23T19:28:40.657Z,96.91
2022-08-23T19:33:42.517Z,97.45
2022-08-23T19:38:44.043Z,98.00
2022-08-23T19:43:45.592Z,98.43
2022-08-23T19:48:48.035Z,98.58
2022-08-23T19:54:04.748Z,98.75
2022-08-23T19:59:10.974Z,99.84
2022-08-23T20:04:12.859Z,100.00
2022-08-23T20:09:14.698Z,100.00
2022-08-23T20:14:16.277Z,100.00
2022-08-23T20:19:18.362Z,100.00
2022-08-23T20:29:44.752Z,100.00
2022-08-23T20:34:46.242Z,100.00
2022-08-23T20:39:48.376Z,100.00
2022-08-23T20:44:50.043Z,100.00
2022-08-23T20:49:51.586Z,100.00
2022-08-23T20:54:53.523Z,100.00
2022-08-23T20:59:55.051Z,100.00
2022-08-23T21:04:56.573Z,100.00
2022-08-23T21:09:59.305Z,100.00
2022-08-23T21:15:00.830Z,100.00
2022-08-23T21:20:04.559Z,100.00
2022-08-23T21:25:09.815Z,100.00
2022-08-23T21:30:11.726Z,100.00
2022-08-23T21:35:13.813Z,100.00
2022-08-23T21:40:15.462Z,100.00
2022-08-23T21:45:16.985Z,100.00
2022-08-23T21:50:19.041Z,100.00
2022-08-23T21:55:20.537Z,100.00
2022-08-23T22:00:22.714Z,100.00
2022-08-23T22:05:24.612Z,100.00
2022-08-23T22:10:26.632Z,100.00
2022-08-23T22:15:28.173Z,100.00
2022-08-23T22:20:31.515Z,100.00
2022-08-23T22:25:33.209Z,100.00
2022-08-23T22:30:35.102Z,100.00
2022-08-23T22:35:36.967Z,100.00
2022-08-23T22:40:39.429Z,100.00
2022-08-23T22:45:54.654Z,100.00
2022-08-23T22:51:18.312Z,100.00
2022-08-23T22:56:26.593Z,100.00
2022-08-23T23:01:34.876Z,100.00
2022-08-23T23:06:37.411Z,100.00
2022-08-23T23:11:40.472Z,100.00
2022-08-23T23:16:44.491Z,100.00
2022-08-23T23:21:51.564Z,100.00
2022-08-23T23:26:53.248Z,100.00
2022-08-23T23:31:55.753Z,100.00
2022-08-23T23:36:58.219Z,100.00
2022-08-23T23:41:59.725Z,100.00
2022-08-23T23:47:02.346Z,100.00
2022-08-23T23:52:05.560Z,100.00
2022-08-23T23:57:07.571Z,100.00
